sensor_id;sensor_type;location;lat;lon;timestamp;temperature;humidity
1179;DHT22;578;48.408;10.004;2022-08-03T00:02:02;16.10;99.90
1179;DHT22;578;48.408;10.004;2022-08-03T00:04:29;16.10;99.90
1179;DHT22;578;48.408;10.004;2022-08-03T00:06:55;16.00;99.90
1179;DHT22;578;48.408;10.004;2022-08-03T00:09:22;16.00;99.90
1179;DHT22;578;48.408;10.004;2022-08-03T00:11:49;16.00;99.90
1179;DHT22;578;48.408;10.004;2022-08-03T00:14:15;16.00;99.90
1179;DHT22;578;48.408;10.004;2022-08-03T00:16:42;16.00;99.90
1179;DHT22;578;48.408;10.004;2022-08-03T00:19:10;16.10;99.90
1179;DHT22;578;48.408;10.004;2022-08-03T00:21:37;16.10;99.90
1179;DHT22;578;48.408;10.004;2022-08-03T00:24:04;16.00;99.90
1179;DHT22;578;48.408;10.004;2022-08-03T00:26:31;16.00;99.90
1179;DHT22;578;48.408;10.004;2022-08-03T00:28:58;16.00;99.90
1179;DHT22;578;48.408;10.004;2022-08-03T00:31:24;15.90;99.90
1179;DHT22;578;48.408;10.004;2022-08-03T00:33:51;15.80;99.90
1179;DHT22;578;48.408;10.004;2022-08-03T00:36:19;15.80;99.90
1179;DHT22;578;48.408;10.004;2022-08-03T00:38:45;15.70;99.90
1179;DHT22;578;48.408;10.004;2022-08-03T00:41:12;15.60;99.90
1179;DHT22;578;48.408;10.004;2022-08-03T00:43:39;15.60;99.90
1179;DHT22;578;48.408;10.004;2022-08-03T00:46:05;15.50;99.90
1179;DHT22;578;48.408;10.004;2022-08-03T00:48:32;15.50;99.90
1179;DHT22;578;48.408;10.004;2022-08-03T00:50:59;15.50;99.90
1179;DHT22;578;48.408;10.004;2022-08-03T00:53:27;15.50;99.90
1179;DHT22;578;48.408;10.004;2022-08-03T00:55:54;15.40;99.90
1179;DHT22;578;48.408;10.004;2022-08-03T00:58:21;15.40;99.90
1179;DHT22;578;48.408;10.004;2022-08-03T01:00:48;15.40;99.90
1179;DHT22;578;48.408;10.004;2022-08-03T01:03:15;15.40;99.90
1179;DHT22;578;48.408;10.004;2022-08-03T01:05:51;15.40;99.90
1179;DHT22;578;48.408;10.004;2022-08-03T01:08:22;15.40;99.90
1179;DHT22;578;48.408;10.004;2022-08-03T01:11:09;15.40;99.90
1179;DHT22;578;48.408;10.004;2022-08-03T01:13:43;15.40;99.90
1179;DHT22;578;48.408;10.004;2022-08-03T01:16:18;15.40;99.90
1179;DHT22;578;48.408;10.004;2022-08-03T01:18:54;15.40;99.90
1179;DHT22;578;48.408;10.004;2022-08-03T01:21:26;15.30;99.90
1179;DHT22;578;48.408;10.004;2022-08-03T01:24:04;15.40;99.90
1179;DHT22;578;48.408;10.004;2022-08-03T01:26:50;15.30;99.90
1179;DHT22;578;48.408;10.004;2022-08-03T01:32:33;15.20;99.90
1179;DHT22;578;48.408;10.004;2022-08-03T01:35:04;15.20;99.90
1179;DHT22;578;48.408;10.004;2022-08-03T01:37:40;15.30;99.90
1179;DHT22;578;48.408;10.004;2022-08-03T01:40:09;15.30;99.90
1179;DHT22;578;48.408;10.004;2022-08-03T01:42:39;15.30;99.90
1179;DHT22;578;48.408;10.004;2022-08-03T01:45:08;15.30;99.90
1179;DHT22;578;48.408;10.004;2022-08-03T01:47:38;15.20;99.90
1179;DHT22;578;48.408;10.004;2022-08-03T01:50:06;15.10;99.90
1179;DHT22;578;48.408;10.004;2022-08-03T01:52:36;15.10;99.90
1179;DHT22;578;48.408;10.004;2022-08-03T01:55:06;15.00;99.90
1179;DHT22;578;48.408;10.004;2022-08-03T01:57:34;15.00;99.90
1179;DHT22;578;48.408;10.004;2022-08-03T02:00:03;14.90;99.90
1179;DHT22;578;48.408;10.004;2022-08-03T02:02:31;14.90;99.90
1179;DHT22;578;48.408;10.004;2022-08-03T02:05:03;15.00;99.90
1179;DHT22;578;48.408;10.004;2022-08-03T02:07:32;15.00;99.90
1179;DHT22;578;48.408;10.004;2022-08-03T02:10:01;14.90;99.90
1179;DHT22;578;48.408;10.004;2022-08-03T02:12:30;14.90;99.90
1179;DHT22;578;48.408;10.004;2022-08-03T02:14:58;14.90;99.90
1179;DHT22;578;48.408;10.004;2022-08-03T02:17:26;14.90;99.90
1179;DHT22;578;48.408;10.004;2022-08-03T02:19:55;14.80;99.90
1179;DHT22;578;48.408;10.004;2022-08-03T02:22:27;14.80;99.90
1179;DHT22;578;48.408;10.004;2022-08-03T02:24:54;14.80;99.90
1179;DHT22;578;48.408;10.004;2022-08-03T02:27:22;14.70;99.90
1179;DHT22;578;48.408;10.004;2022-08-03T02:29:52;14.70;99.90
1179;DHT22;578;48.408;10.004;2022-08-03T02:32:24;14.80;99.90
1179;DHT22;578;48.408;10.004;2022-08-03T02:34:55;14.80;99.90
1179;DHT22;578;48.408;10.004;2022-08-03T02:37:26;14.80;99.90
1179;DHT22;578;48.408;10.004;2022-08-03T02:39:57;14.80;99.90
1179;DHT22;578;48.408;10.004;2022-08-03T02:42:25;14.80;99.90
1179;DHT22;578;48.408;10.004;2022-08-03T02:44:56;14.80;99.90
1179;DHT22;578;48.408;10.004;2022-08-03T02:47:25;14.70;99.90
1179;DHT22;578;48.408;10.004;2022-08-03T02:49:54;14.70;99.90
1179;DHT22;578;48.408;10.004;2022-08-03T02:52:27;14.70;99.90
1179;DHT22;578;48.408;10.004;2022-08-03T02:54:57;14.70;99.90
1179;DHT22;578;48.408;10.004;2022-08-03T02:57:26;14.60;99.90
1179;DHT22;578;48.408;10.004;2022-08-03T02:59:54;14.60;99.90
1179;DHT22;578;48.408;10.004;2022-08-03T03:02:21;14.60;99.90
1179;DHT22;578;48.408;10.004;2022-08-03T03:04:50;14.50;99.90
1179;DHT22;578;48.408;10.004;2022-08-03T03:07:17;14.50;99.90
1179;DHT22;578;48.408;10.004;2022-08-03T03:09:46;14.50;99.90
1179;DHT22;578;48.408;10.004;2022-08-03T03:12:13;14.50;99.90
1179;DHT22;578;48.408;10.004;2022-08-03T03:14:40;14.50;99.90
1179;DHT22;578;48.408;10.004;2022-08-03T03:17:09;14.40;99.90
1179;DHT22;578;48.408;10.004;2022-08-03T03:19:38;14.40;99.90
1179;DHT22;578;48.408;10.004;2022-08-03T03:22:07;14.40;99.90
1179;DHT22;578;48.408;10.004;2022-08-03T03:24:35;14.40;99.90
1179;DHT22;578;48.408;10.004;2022-08-03T03:27:03;14.30;99.90
1179;DHT22;578;48.408;10.004;2022-08-03T03:29:31;14.30;99.90
1179;DHT22;578;48.408;10.004;2022-08-03T03:32:00;14.30;99.90
1179;DHT22;578;48.408;10.004;2022-08-03T03:34:28;14.30;99.90
1179;DHT22;578;48.408;10.004;2022-08-03T03:36:55;14.30;99.90
1179;DHT22;578;48.408;10.004;2022-08-03T03:39:22;14.30;99.90
1179;DHT22;578;48.408;10.004;2022-08-03T03:41:48;14.30;99.90
1179;DHT22;578;48.408;10.004;2022-08-03T03:44:16;14.30;99.90
1179;DHT22;578;48.408;10.004;2022-08-03T03:46:43;14.20;99.90
1179;DHT22;578;48.408;10.004;2022-08-03T03:49:10;14.20;99.90
1179;DHT22;578;48.408;10.004;2022-08-03T03:51:37;14.20;99.90
1179;DHT22;578;48.408;10.004;2022-08-03T03:54:04;14.20;99.90
1179;DHT22;578;48.408;10.004;2022-08-03T03:56:31;14.20;99.90
1179;DHT22;578;48.408;10.004;2022-08-03T03:58:58;14.20;99.90
1179;DHT22;578;48.408;10.004;2022-08-03T04:01:26;14.20;99.90
1179;DHT22;578;48.408;10.004;2022-08-03T04:03:53;14.30;99.90
1179;DHT22;578;48.408;10.004;2022-08-03T04:06:19;14.20;99.90
1179;DHT22;578;48.408;10.004;2022-08-03T04:09:03;14.30;99.90
1179;DHT22;578;48.408;10.004;2022-08-03T04:11:51;14.30;99.90
1179;DHT22;578;48.408;10.004;2022-08-03T04:14:21;14.30;99.90
1179;DHT22;578;48.408;10.004;2022-08-03T04:16:51;14.20;99.90
1179;DHT22;578;48.408;10.004;2022-08-03T04:19:22;14.20;99.90
1179;DHT22;578;48.408;10.004;2022-08-03T04:21:53;14.20;99.90
1179;DHT22;578;48.408;10.004;2022-08-03T04:24:22;14.20;99.90
1179;DHT22;578;48.408;10.004;2022-08-03T04:26:50;14.20;99.90
1179;DHT22;578;48.408;10.004;2022-08-03T04:29:18;14.20;99.90
1179;DHT22;578;48.408;10.004;2022-08-03T04:31:46;14.30;99.90
1179;DHT22;578;48.408;10.004;2022-08-03T04:34:15;14.30;99.90
1179;DHT22;578;48.408;10.004;2022-08-03T04:36:47;14.40;99.90
1179;DHT22;578;48.408;10.004;2022-08-03T04:39:21;14.30;99.90
1179;DHT22;578;48.408;10.004;2022-08-03T04:41:52;14.30;99.90
1179;DHT22;578;48.408;10.004;2022-08-03T04:44:21;14.40;99.90
1179;DHT22;578;48.408;10.004;2022-08-03T04:46:49;14.40;99.90
1179;DHT22;578;48.408;10.004;2022-08-03T04:49:17;14.40;99.90
1179;DHT22;578;48.408;10.004;2022-08-03T04:51:45;14.50;99.90
1179;DHT22;578;48.408;10.004;2022-08-03T04:54:13;14.50;99.90
1179;DHT22;578;48.408;10.004;2022-08-03T04:56:40;14.60;99.90
1179;DHT22;578;48.408;10.004;2022-08-03T04:59:08;14.60;99.90
1179;DHT22;578;48.408;10.004;2022-08-03T05:01:35;14.70;99.90
1179;DHT22;578;48.408;10.004;2022-08-03T05:04:01;14.80;99.90
1179;DHT22;578;48.408;10.004;2022-08-03T05:06:30;14.90;99.90
1179;DHT22;578;48.408;10.004;2022-08-03T05:08:56;15.00;99.90
1179;DHT22;578;48.408;10.004;2022-08-03T05:11:23;15.00;99.90
1179;DHT22;578;48.408;10.004;2022-08-03T05:13:50;15.10;99.90
1179;DHT22;578;48.408;10.004;2022-08-03T05:16:17;15.20;99.90
1179;DHT22;578;48.408;10.004;2022-08-03T05:18:43;15.30;99.90
1179;DHT22;578;48.408;10.004;2022-08-03T05:21:10;15.30;99.90
1179;DHT22;578;48.408;10.004;2022-08-03T05:23:39;15.40;99.90
1179;DHT22;578;48.408;10.004;2022-08-03T05:26:06;15.40;99.90
1179;DHT22;578;48.408;10.004;2022-08-03T05:28:33;15.40;99.90
1179;DHT22;578;48.408;10.004;2022-08-03T05:30:59;15.50;99.90
1179;DHT22;578;48.408;10.004;2022-08-03T05:33:26;15.60;99.90
1179;DHT22;578;48.408;10.004;2022-08-03T05:35:53;15.80;99.90
1179;DHT22;578;48.408;10.004;2022-08-03T05:38:19;16.00;99.90
1179;DHT22;578;48.408;10.004;2022-08-03T05:40:47;16.30;99.90
1179;DHT22;578;48.408;10.004;2022-08-03T05:43:14;16.60;99.90
1179;DHT22;578;48.408;10.004;2022-08-03T05:45:41;17.00;99.90
1179;DHT22;578;48.408;10.004;2022-08-03T05:48:07;17.50;99.90
1179;DHT22;578;48.408;10.004;2022-08-03T05:50:34;18.20;99.90
1179;DHT22;578;48.408;10.004;2022-08-03T05:53:01;18.80;99.90
1179;DHT22;578;48.408;10.004;2022-08-03T05:55:28;19.40;99.90
1179;DHT22;578;48.408;10.004;2022-08-03T05:57:56;20.00;99.90
1179;DHT22;578;48.408;10.004;2022-08-03T06:00:22;20.40;99.90
1179;DHT22;578;48.408;10.004;2022-08-03T06:02:49;21.10;99.90
1179;DHT22;578;48.408;10.004;2022-08-03T06:05:16;21.60;95.10
1179;DHT22;578;48.408;10.004;2022-08-03T06:07:42;22.60;94.10
1179;DHT22;578;48.408;10.004;2022-08-03T06:10:09;23.20;91.20
1179;DHT22;578;48.408;10.004;2022-08-03T06:12:36;24.00;88.60
1179;DHT22;578;48.408;10.004;2022-08-03T06:15:08;25.10;83.40
1179;DHT22;578;48.408;10.004;2022-08-03T06:17:43;25.40;79.40
1179;DHT22;578;48.408;10.004;2022-08-03T06:20:10;25.80;79.50
1179;DHT22;578;48.408;10.004;2022-08-03T06:22:37;26.20;76.90
1179;DHT22;578;48.408;10.004;2022-08-03T06:25:05;26.90;79.50
1179;DHT22;578;48.408;10.004;2022-08-03T06:27:31;26.30;76.90
1179;DHT22;578;48.408;10.004;2022-08-03T06:29:58;26.80;76.00
1179;DHT22;578;48.408;10.004;2022-08-03T06:32:26;26.80;73.50
1179;DHT22;578;48.408;10.004;2022-08-03T06:34:53;26.30;73.40
1179;DHT22;578;48.408;10.004;2022-08-03T06:37:20;26.70;72.50
1179;DHT22;578;48.408;10.004;2022-08-03T06:39:47;26.00;71.80
1179;DHT22;578;48.408;10.004;2022-08-03T06:42:14;26.10;70.50
1179;DHT22;578;48.408;10.004;2022-08-03T06:44:40;26.10;71.60
1179;DHT22;578;48.408;10.004;2022-08-03T06:47:07;26.40;70.70
1179;DHT22;578;48.408;10.004;2022-08-03T06:49:35;26.90;69.60
1179;DHT22;578;48.408;10.004;2022-08-03T06:52:03;26.90;69.80
1179;DHT22;578;48.408;10.004;2022-08-03T06:54:30;26.50;68.40
1179;DHT22;578;48.408;10.004;2022-08-03T06:56:56;26.10;68.70
1179;DHT22;578;48.408;10.004;2022-08-03T06:59:23;26.80;69.90
1179;DHT22;578;48.408;10.004;2022-08-03T07:01:50;27.20;70.90
1179;DHT22;578;48.408;10.004;2022-08-03T07:04:16;26.80;67.80
1179;DHT22;578;48.408;10.004;2022-08-03T07:06:44;26.60;70.20
1179;DHT22;578;48.408;10.004;2022-08-03T07:09:11;26.40;67.00
1179;DHT22;578;48.408;10.004;2022-08-03T07:11:38;26.30;66.00
1179;DHT22;578;48.408;10.004;2022-08-03T07:14:04;26.80;67.40
1179;DHT22;578;48.408;10.004;2022-08-03T07:16:31;27.40;67.70
1179;DHT22;578;48.408;10.004;2022-08-03T07:18:58;27.80;65.10
1179;DHT22;578;48.408;10.004;2022-08-03T07:21:25;27.60;66.50
1179;DHT22;578;48.408;10.004;2022-08-03T07:23:53;27.70;64.50
1179;DHT22;578;48.408;10.004;2022-08-03T07:26:19;28.00;62.70
1179;DHT22;578;48.408;10.004;2022-08-03T07:28:46;27.60;62.30
1179;DHT22;578;48.408;10.004;2022-08-03T07:31:13;28.50;63.50
1179;DHT22;578;48.408;10.004;2022-08-03T07:33:39;28.70;59.90
1179;DHT22;578;48.408;10.004;2022-08-03T07:36:06;28.50;61.20
1179;DHT22;578;48.408;10.004;2022-08-03T07:38:34;28.70;60.90
1179;DHT22;578;48.408;10.004;2022-08-03T07:41:02;28.90;62.80
1179;DHT22;578;48.408;10.004;2022-08-03T07:43:29;28.50;56.80
1179;DHT22;578;48.408;10.004;2022-08-03T07:45:56;28.70;57.20
1179;DHT22;578;48.408;10.004;2022-08-03T07:48:22;29.40;60.00
1179;DHT22;578;48.408;10.004;2022-08-03T07:50:49;29.30;60.50
1179;DHT22;578;48.408;10.004;2022-08-03T07:53:16;29.20;58.30
1179;DHT22;578;48.408;10.004;2022-08-03T07:55:42;29.20;58.10
1179;DHT22;578;48.408;10.004;2022-08-03T07:58:11;29.00;58.10
1179;DHT22;578;48.408;10.004;2022-08-03T08:00:40;29.10;57.10
1179;DHT22;578;48.408;10.004;2022-08-03T08:03:09;29.60;60.90
1179;DHT22;578;48.408;10.004;2022-08-03T08:05:36;29.20;55.90
1179;DHT22;578;48.408;10.004;2022-08-03T08:08:03;29.40;59.30
1179;DHT22;578;48.408;10.004;2022-08-03T08:10:30;28.60;62.70
1179;DHT22;578;48.408;10.004;2022-08-03T08:12:58;28.50;61.50
1179;DHT22;578;48.408;10.004;2022-08-03T08:15:26;29.30;63.90
1179;DHT22;578;48.408;10.004;2022-08-03T08:17:55;29.70;57.60
1179;DHT22;578;48.408;10.004;2022-08-03T08:20:24;29.40;60.90
1179;DHT22;578;48.408;10.004;2022-08-03T08:22:51;29.50;60.20
1179;DHT22;578;48.408;10.004;2022-08-03T08:25:18;29.80;57.20
1179;DHT22;578;48.408;10.004;2022-08-03T08:27:46;29.70;57.00
1179;DHT22;578;48.408;10.004;2022-08-03T08:30:14;29.80;56.10
1179;DHT22;578;48.408;10.004;2022-08-03T08:32:43;29.90;55.10
1179;DHT22;578;48.408;10.004;2022-08-03T08:35:11;30.30;59.40
1179;DHT22;578;48.408;10.004;2022-08-03T08:37:38;29.70;55.80
1179;DHT22;578;48.408;10.004;2022-08-03T08:40:07;30.20;55.60
1179;DHT22;578;48.408;10.004;2022-08-03T08:42:36;30.20;54.40
1179;DHT22;578;48.408;10.004;2022-08-03T08:45:03;30.50;58.10
1179;DHT22;578;48.408;10.004;2022-08-03T08:47:31;31.00;54.70
1179;DHT22;578;48.408;10.004;2022-08-03T08:50:02;31.30;57.50
1179;DHT22;578;48.408;10.004;2022-08-03T08:52:30;30.00;54.80
1179;DHT22;578;48.408;10.004;2022-08-03T08:54:59;30.50;53.10
1179;DHT22;578;48.408;10.004;2022-08-03T08:57:29;30.40;55.50
1179;DHT22;578;48.408;10.004;2022-08-03T08:59:57;31.10;56.80
1179;DHT22;578;48.408;10.004;2022-08-03T09:02:24;30.70;53.20
1179;DHT22;578;48.408;10.004;2022-08-03T09:04:52;31.00;54.40
1179;DHT22;578;48.408;10.004;2022-08-03T09:07:20;30.80;55.60
1179;DHT22;578;48.408;10.004;2022-08-03T09:09:47;31.50;55.00
1179;DHT22;578;48.408;10.004;2022-08-03T09:12:14;31.20;50.80
1179;DHT22;578;48.408;10.004;2022-08-03T09:14:41;31.50;51.60
1179;DHT22;578;48.408;10.004;2022-08-03T09:17:08;31.80;49.50
1179;DHT22;578;48.408;10.004;2022-08-03T09:19:34;31.10;50.40
1179;DHT22;578;48.408;10.004;2022-08-03T09:22:09;31.10;51.60
1179;DHT22;578;48.408;10.004;2022-08-03T09:24:52;30.70;50.00
1179;DHT22;578;48.408;10.004;2022-08-03T09:27:20;31.00;50.00
1179;DHT22;578;48.408;10.004;2022-08-03T09:29:47;31.20;50.50
1179;DHT22;578;48.408;10.004;2022-08-03T09:32:18;31.00;52.10
1179;DHT22;578;48.408;10.004;2022-08-03T09:34:46;30.90;50.50
1179;DHT22;578;48.408;10.004;2022-08-03T09:37:13;31.20;52.80
1179;DHT22;578;48.408;10.004;2022-08-03T09:39:42;31.20;52.30
1179;DHT22;578;48.408;10.004;2022-08-03T09:42:11;31.60;51.60
1179;DHT22;578;48.408;10.004;2022-08-03T09:44:40;31.30;49.70
1179;DHT22;578;48.408;10.004;2022-08-03T09:47:08;31.50;51.50
1179;DHT22;578;48.408;10.004;2022-08-03T09:49:35;31.10;52.20
1179;DHT22;578;48.408;10.004;2022-08-03T09:52:11;31.00;51.90
1179;DHT22;578;48.408;10.004;2022-08-03T09:54:39;30.70;52.90
1179;DHT22;578;48.408;10.004;2022-08-03T09:57:08;30.90;50.80
1179;DHT22;578;48.408;10.004;2022-08-03T09:59:34;31.00;50.90
1179;DHT22;578;48.408;10.004;2022-08-03T10:02:01;31.00;53.30
1179;DHT22;578;48.408;10.004;2022-08-03T10:04:28;31.10;51.00
1179;DHT22;578;48.408;10.004;2022-08-03T10:07:03;31.40;51.30
1179;DHT22;578;48.408;10.004;2022-08-03T10:09:30;31.00;49.60
1179;DHT22;578;48.408;10.004;2022-08-03T10:12:07;31.10;53.90
1179;DHT22;578;48.408;10.004;2022-08-03T10:14:36;31.70;50.40
1179;DHT22;578;48.408;10.004;2022-08-03T10:17:03;32.40;48.60
1179;DHT22;578;48.408;10.004;2022-08-03T10:19:30;31.20;49.70
1179;DHT22;578;48.408;10.004;2022-08-03T10:22:02;31.20;48.50
1179;DHT22;578;48.408;10.004;2022-08-03T10:24:32;31.30;48.30
1179;DHT22;578;48.408;10.004;2022-08-03T10:27:01;31.80;48.50
1179;DHT22;578;48.408;10.004;2022-08-03T10:29:34;31.60;48.20
1179;DHT22;578;48.408;10.004;2022-08-03T10:32:03;31.60;49.00
1179;DHT22;578;48.408;10.004;2022-08-03T10:34:34;32.20;50.60
1179;DHT22;578;48.408;10.004;2022-08-03T10:37:08;32.30;41.80
1179;DHT22;578;48.408;10.004;2022-08-03T10:39:36;32.40;44.00
1179;DHT22;578;48.408;10.004;2022-08-03T10:42:03;33.00;44.20
1179;DHT22;578;48.408;10.004;2022-08-03T10:44:37;33.00;40.90
1179;DHT22;578;48.408;10.004;2022-08-03T10:47:05;32.60;42.40
1179;DHT22;578;48.408;10.004;2022-08-03T10:49:33;32.40;41.50
1179;DHT22;578;48.408;10.004;2022-08-03T10:51:59;31.90;38.70
1179;DHT22;578;48.408;10.004;2022-08-03T10:54:39;32.20;42.80
1179;DHT22;578;48.408;10.004;2022-08-03T10:57:43;32.70;44.10
1179;DHT22;578;48.408;10.004;2022-08-03T11:00:12;32.90;40.80
1179;DHT22;578;48.408;10.004;2022-08-03T11:03:02;32.70;41.90
1179;DHT22;578;48.408;10.004;2022-08-03T11:05:32;32.10;43.00
1179;DHT22;578;48.408;10.004;2022-08-03T11:08:25;32.00;40.40
1179;DHT22;578;48.408;10.004;2022-08-03T11:10:54;32.80;42.60
1179;DHT22;578;48.408;10.004;2022-08-03T11:13:23;32.50;41.10
1179;DHT22;578;48.408;10.004;2022-08-03T11:15:55;32.60;42.80
1179;DHT22;578;48.408;10.004;2022-08-03T11:18:22;31.60;39.40
1179;DHT22;578;48.408;10.004;2022-08-03T11:20:50;31.10;41.20
1179;DHT22;578;48.408;10.004;2022-08-03T11:23:19;31.60;41.40
1179;DHT22;578;48.408;10.004;2022-08-03T11:26:08;31.90;38.20
1179;DHT22;578;48.408;10.004;2022-08-03T11:28:35;32.30;42.30
1179;DHT22;578;48.408;10.004;2022-08-03T11:34:05;31.60;40.10
1179;DHT22;578;48.408;10.004;2022-08-03T11:39:40;31.30;41.80
1179;DHT22;578;48.408;10.004;2022-08-03T11:42:39;31.50;42.10
1179;DHT22;578;48.408;10.004;2022-08-03T11:45:07;31.70;43.90
1179;DHT22;578;48.408;10.004;2022-08-03T11:47:37;31.50;40.70
1179;DHT22;578;48.408;10.004;2022-08-03T11:50:07;31.80;41.30
1179;DHT22;578;48.408;10.004;2022-08-03T11:52:36;31.80;40.70
1179;DHT22;578;48.408;10.004;2022-08-03T11:55:14;31.30;37.60
1179;DHT22;578;48.408;10.004;2022-08-03T11:57:41;30.80;39.80
1179;DHT22;578;48.408;10.004;2022-08-03T12:00:27;30.40;39.80
1179;DHT22;578;48.408;10.004;2022-08-03T12:02:56;30.90;40.20
1179;DHT22;578;48.408;10.004;2022-08-03T12:05:37;31.00;42.70
1179;DHT22;578;48.408;10.004;2022-08-03T12:08:05;31.20;42.50
1179;DHT22;578;48.408;10.004;2022-08-03T12:10:33;31.50;38.40
1179;DHT22;578;48.408;10.004;2022-08-03T12:13:00;31.00;37.00
1179;DHT22;578;48.408;10.004;2022-08-03T12:15:31;30.70;40.60
1179;DHT22;578;48.408;10.004;2022-08-03T12:17:59;30.30;38.90
1179;DHT22;578;48.408;10.004;2022-08-03T12:20:29;30.50;43.80
1179;DHT22;578;48.408;10.004;2022-08-03T12:23:03;30.80;38.40
1179;DHT22;578;48.408;10.004;2022-08-03T12:25:31;30.40;41.70
1179;DHT22;578;48.408;10.004;2022-08-03T12:28:15;30.40;40.90
1179;DHT22;578;48.408;10.004;2022-08-03T12:30:44;30.70;41.60
1179;DHT22;578;48.408;10.004;2022-08-03T12:33:19;30.60;39.70
1179;DHT22;578;48.408;10.004;2022-08-03T12:35:48;30.50;39.90
1179;DHT22;578;48.408;10.004;2022-08-03T12:38:21;30.40;40.90
1179;DHT22;578;48.408;10.004;2022-08-03T12:40:56;30.60;41.00
1179;DHT22;578;48.408;10.004;2022-08-03T12:43:23;30.60;41.90
1179;DHT22;578;48.408;10.004;2022-08-03T12:45:50;30.70;42.30
1179;DHT22;578;48.408;10.004;2022-08-03T12:48:17;30.70;42.30
1179;DHT22;578;48.408;10.004;2022-08-03T12:50:44;30.90;44.20
1179;DHT22;578;48.408;10.004;2022-08-03T12:53:10;30.60;41.10
1179;DHT22;578;48.408;10.004;2022-08-03T12:55:39;30.60;40.90
1179;DHT22;578;48.408;10.004;2022-08-03T12:58:07;30.40;41.70
1179;DHT22;578;48.408;10.004;2022-08-03T13:00:35;30.60;41.80
1179;DHT22;578;48.408;10.004;2022-08-03T13:03:03;30.50;39.80
1179;DHT22;578;48.408;10.004;2022-08-03T13:05:31;30.40;39.50
1179;DHT22;578;48.408;10.004;2022-08-03T13:08:17;30.60;45.50
1179;DHT22;578;48.408;10.004;2022-08-03T13:10:45;30.50;42.90
1179;DHT22;578;48.408;10.004;2022-08-03T13:13:12;30.80;40.40
1179;DHT22;578;48.408;10.004;2022-08-03T13:15:39;30.40;38.90
1179;DHT22;578;48.408;10.004;2022-08-03T13:18:06;30.30;39.40
1179;DHT22;578;48.408;10.004;2022-08-03T13:20:33;30.30;39.80
1179;DHT22;578;48.408;10.004;2022-08-03T13:22:59;30.40;42.50
1179;DHT22;578;48.408;10.004;2022-08-03T13:25:26;30.50;43.70
1179;DHT22;578;48.408;10.004;2022-08-03T13:27:54;30.50;42.60
1179;DHT22;578;48.408;10.004;2022-08-03T13:30:21;30.40;39.20
1179;DHT22;578;48.408;10.004;2022-08-03T13:32:48;30.40;42.40
1179;DHT22;578;48.408;10.004;2022-08-03T13:35:14;30.30;41.90
1179;DHT22;578;48.408;10.004;2022-08-03T13:37:41;30.40;44.50
1179;DHT22;578;48.408;10.004;2022-08-03T13:40:08;30.30;41.80
1179;DHT22;578;48.408;10.004;2022-08-03T13:42:35;30.40;42.60
1179;DHT22;578;48.408;10.004;2022-08-03T13:45:04;30.20;41.10
1179;DHT22;578;48.408;10.004;2022-08-03T13:47:31;30.10;41.90
1179;DHT22;578;48.408;10.004;2022-08-03T13:49:58;30.40;44.30
1179;DHT22;578;48.408;10.004;2022-08-03T13:52:24;30.10;40.50
1179;DHT22;578;48.408;10.004;2022-08-03T13:54:51;30.20;44.10
1179;DHT22;578;48.408;10.004;2022-08-03T13:57:18;30.20;46.00
1179;DHT22;578;48.408;10.004;2022-08-03T13:59:45;30.20;41.20
1179;DHT22;578;48.408;10.004;2022-08-03T14:02:13;30.40;44.90
1179;DHT22;578;48.408;10.004;2022-08-03T14:04:39;30.60;44.10
1179;DHT22;578;48.408;10.004;2022-08-03T14:07:06;30.60;45.10
1179;DHT22;578;48.408;10.004;2022-08-03T14:09:33;30.70;41.00
1179;DHT22;578;48.408;10.004;2022-08-03T14:12:00;30.60;45.70
1179;DHT22;578;48.408;10.004;2022-08-03T14:14:26;30.50;42.00
1179;DHT22;578;48.408;10.004;2022-08-03T14:16:53;30.40;42.00
1179;DHT22;578;48.408;10.004;2022-08-03T14:19:21;30.40;43.10
1179;DHT22;578;48.408;10.004;2022-08-03T14:21:48;30.40;40.80
1179;DHT22;578;48.408;10.004;2022-08-03T14:24:14;30.50;41.20
1179;DHT22;578;48.408;10.004;2022-08-03T14:26:41;30.50;43.40
1179;DHT22;578;48.408;10.004;2022-08-03T14:29:08;30.30;47.10
1179;DHT22;578;48.408;10.004;2022-08-03T14:31:35;30.10;40.90
1179;DHT22;578;48.408;10.004;2022-08-03T14:34:02;30.10;48.70
1179;DHT22;578;48.408;10.004;2022-08-03T14:36:30;30.10;45.50
1179;DHT22;578;48.408;10.004;2022-08-03T14:38:57;30.20;43.60
1179;DHT22;578;48.408;10.004;2022-08-03T14:41:24;30.30;41.00
1179;DHT22;578;48.408;10.004;2022-08-03T14:43:50;30.20;44.40
1179;DHT22;578;48.408;10.004;2022-08-03T14:46:17;30.30;43.10
1179;DHT22;578;48.408;10.004;2022-08-03T14:48:44;30.30;42.80
1179;DHT22;578;48.408;10.004;2022-08-03T14:51:10;30.30;43.40
1179;DHT22;578;48.408;10.004;2022-08-03T14:53:39;30.20;40.30
1179;DHT22;578;48.408;10.004;2022-08-03T14:56:06;30.30;42.60
1179;DHT22;578;48.408;10.004;2022-08-03T14:58:33;30.20;42.00
1179;DHT22;578;48.408;10.004;2022-08-03T15:00:59;30.00;40.60
1179;DHT22;578;48.408;10.004;2022-08-03T15:03:26;30.10;44.00
1179;DHT22;578;48.408;10.004;2022-08-03T15:05:55;30.20;40.20
1179;DHT22;578;48.408;10.004;2022-08-03T15:08:23;29.90;46.30
1179;DHT22;578;48.408;10.004;2022-08-03T15:10:52;29.90;42.50
1179;DHT22;578;48.408;10.004;2022-08-03T15:13:19;30.00;42.70
1179;DHT22;578;48.408;10.004;2022-08-03T15:15:47;29.80;45.90
1179;DHT22;578;48.408;10.004;2022-08-03T15:18:14;29.80;43.30
1179;DHT22;578;48.408;10.004;2022-08-03T15:20:41;29.70;41.40
1179;DHT22;578;48.408;10.004;2022-08-03T15:23:07;29.90;41.60
1179;DHT22;578;48.408;10.004;2022-08-03T15:25:34;29.80;43.60
1179;DHT22;578;48.408;10.004;2022-08-03T15:28:02;29.70;46.30
1179;DHT22;578;48.408;10.004;2022-08-03T15:30:29;29.90;46.50
1179;DHT22;578;48.408;10.004;2022-08-03T15:33:00;29.90;44.40
1179;DHT22;578;48.408;10.004;2022-08-03T15:35:27;29.80;44.60
1179;DHT22;578;48.408;10.004;2022-08-03T15:37:54;29.90;41.60
1179;DHT22;578;48.408;10.004;2022-08-03T15:40:20;29.90;42.40
1179;DHT22;578;48.408;10.004;2022-08-03T15:42:47;30.00;40.70
1179;DHT22;578;48.408;10.004;2022-08-03T15:45:15;30.00;39.30
1179;DHT22;578;48.408;10.004;2022-08-03T15:47:42;29.90;41.10
1179;DHT22;578;48.408;10.004;2022-08-03T15:50:08;29.90;40.20
1179;DHT22;578;48.408;10.004;2022-08-03T15:52:36;29.80;40.90
1179;DHT22;578;48.408;10.004;2022-08-03T15:55:03;29.80;41.20
1179;DHT22;578;48.408;10.004;2022-08-03T15:57:30;29.80;41.50
1179;DHT22;578;48.408;10.004;2022-08-03T15:59:57;29.70;41.20
1179;DHT22;578;48.408;10.004;2022-08-03T16:02:24;29.60;42.20
1179;DHT22;578;48.408;10.004;2022-08-03T16:04:51;29.40;42.30
1179;DHT22;578;48.408;10.004;2022-08-03T16:07:18;29.30;44.00
1179;DHT22;578;48.408;10.004;2022-08-03T16:10:06;29.40;41.00
1179;DHT22;578;48.408;10.004;2022-08-03T16:12:32;29.40;41.90
1179;DHT22;578;48.408;10.004;2022-08-03T16:14:59;29.20;43.30
1179;DHT22;578;48.408;10.004;2022-08-03T16:17:27;28.80;47.90
1179;DHT22;578;48.408;10.004;2022-08-03T16:19:54;28.90;45.10
1179;DHT22;578;48.408;10.004;2022-08-03T16:22:21;28.80;50.20